Time;durP1;ratioP1;P1;durP2;ratioP2;P2;SDS_P1;SDS_P2;PMS_P1;PMS_P2;Temp;Humidity;BMP_temperature;BMP_pressure;BME280_temperature;BME280_humidity;BME280_pressure;Samples;Min_cycle;Max_cycle;Signal;HPM_P1;HPM_P2
2023/06/17 00:04:34;;;;;;;2.20;1.70;;;;;;;13.86;100.00;98313.13;15278998;19;20082;-45
2023/06/17 00:09:59;;;;;;;1.88;1.67;;;;;;;13.78;100.00;98307.75;15283221;19;20011;-48
2023/06/17 00:15:25;;;;;;;3.10;1.80;;;;;;;13.73;100.00;98302.06;15272924;19;20014;-46
2023/06/17 00:20:52;;;;;;;2.22;1.75;;;;;;;13.66;100.00;98302.78;15277469;19;20010;-49
2023/06/17 00:26:17;;;;;;;3.00;1.80;;;;;;;13.58;100.00;98302.06;15277806;19;20017;-43
2023/06/17 00:31:43;;;;;;;2.40;1.80;;;;;;;13.54;100.00;98302.41;15280133;19;20022;-47
2023/06/17 00:37:10;;;;;;;2.42;2.00;;;;;;;13.46;100.00;98301.63;15277355;19;20018;-44
2023/06/17 00:42:35;;;;;;;1.85;1.70;;;;;;;13.38;100.00;98295.25;15278232;19;20019;-46
2023/06/17 00:48:01;;;;;;;2.17;1.95;;;;;;;13.32;100.00;98298.69;15271312;19;20271;-46
2023/06/17 00:53:29;;;;;;;2.20;2.00;;;;;;;13.24;100.00;98307.69;15273265;19;20624;-51
2023/06/17 00:59:00;;;;;;;2.33;1.85;;;;;;;13.15;100.00;98303.38;15276831;19;20398;-47
2023/06/17 01:04:25;;;;;;;2.42;2.10;;;;;;;13.04;100.00;98307.38;15275035;19;20089;-49
2023/06/17 01:10:05;;;;;;;2.72;2.00;;;;;;;12.99;100.00;98309.75;15279016;19;20010;-45
2023/06/17 01:15:33;;;;;;;2.22;2.00;;;;;;;12.89;100.00;98296.47;15276649;19;20655;-49
2023/06/17 01:20:59;;;;;;;2.90;2.10;;;;;;;12.84;100.00;98290.75;15271463;19;20031;-46
2023/06/17 01:26:28;;;;;;;3.08;2.00;;;;;;;12.77;100.00;98295.19;15270511;19;20019;-47
2023/06/17 01:31:56;;;;;;;2.95;1.92;;;;;;;12.74;100.00;98292.88;15280186;19;20031;-45
2023/06/17 01:37:28;;;;;;;3.03;1.90;;;;;;;12.71;100.00;98285.09;15272547;19;20018;-43
2023/06/17 01:43:00;;;;;;;2.25;1.90;;;;;;;12.66;100.00;98280.22;15274305;19;20375;-43
2023/06/17 01:48:25;;;;;;;1.98;1.88;;;;;;;12.65;100.00;98283.94;15273162;19;20007;-44
2023/06/17 01:53:50;;;;;;;2.55;2.05;;;;;;;12.65;100.00;98286.66;15267251;19;20018;-47
2023/06/17 01:59:25;;;;;;;3.05;2.17;;;;;;;12.64;100.00;98290.38;15265992;19;20018;-47
2023/06/17 02:04:50;;;;;;;2.00;1.90;;;;;;;12.59;100.00;98292.75;15273299;19;20094;-44
2023/06/17 02:10:16;;;;;;;2.00;1.80;;;;;;;12.58;100.00;98294.63;15274934;19;20029;-44
2023/06/17 02:15:43;;;;;;;2.47;1.98;;;;;;;12.60;100.00;98295.31;15267345;19;20031;-44
2023/06/17 02:21:10;;;;;;;3.53;2.20;;;;;;;12.61;100.00;98296.13;15274282;19;20551;-44
2023/06/17 02:26:35;;;;;;;3.50;1.90;;;;;;;12.63;100.00;98280.59;15264070;19;20098;-44
2023/06/17 02:32:02;;;;;;;2.63;2.35;;;;;;;12.60;100.00;98279.09;15283634;19;20022;-45
2023/06/17 02:37:28;;;;;;;3.85;2.50;;;;;;;12.58;100.00;98285.69;15288511;19;20021;-44
2023/06/17 02:42:52;;;;;;;2.60;2.40;;;;;;;12.51;100.00;98293.66;15286964;19;20642;-51
2023/06/17 02:48:22;;;;;;;2.78;2.42;;;;;;;12.46;100.00;98293.34;15282957;19;20026;-47
2023/06/17 02:53:47;;;;;;;2.63;2.42;;;;;;;12.42;100.00;98292.88;15282321;19;20022;-43
2023/06/17 02:59:18;;;;;;;2.80;2.60;;;;;;;12.41;100.00;98290.31;15274863;19;20021;-45
2023/06/17 03:04:46;;;;;;;3.72;2.50;;;;;;;12.39;100.00;98290.50;15277254;19;20014;-45
2023/06/17 03:10:14;;;;;;;2.47;2.28;;;;;;;12.37;100.00;98294.41;15281602;19;20010;-43
2023/06/17 03:15:48;;;;;;;3.55;2.40;;;;;;;12.36;100.00;98293.53;15282021;19;20010;-44
2023/06/17 03:21:19;;;;;;;3.35;2.40;;;;;;;12.36;100.00;98287.31;15286024;19;20022;-46
2023/06/17 03:26:44;;;;;;;3.15;2.50;;;;;;;12.36;100.00;98288.16;15280403;19;20018;-48
2023/06/17 03:32:09;;;;;;;3.15;2.75;;;;;;;12.37;100.00;98297.09;15269754;19;20369;-46
2023/06/17 03:37:37;;;;;;;4.93;2.80;;;;;;;12.37;100.00;98302.50;15282243;19;20775;-48
2023/06/17 03:43:03;;;;;;;2.65;2.42;;;;;;;12.35;100.00;98297.25;15282438;19;20034;-43
2023/06/17 03:48:28;;;;;;;5.13;2.40;;;;;;;12.35;100.00;98285.63;15278928;19;20385;-48
2023/06/17 03:53:55;;;;;;;4.30;2.60;;;;;;;12.36;100.00;98288.16;15281275;19;20578;-46
2023/06/17 03:59:27;;;;;;;2.78;2.53;;;;;;;12.38;100.00;98288.00;15277531;19;20020;-46
2023/06/17 04:04:52;;;;;;;3.13;2.70;;;;;;;12.41;100.00;98287.63;15269621;19;20600;-46
2023/06/17 04:10:19;;;;;;;3.05;2.75;;;;;;;12.41;100.00;98299.28;15282462;19;20025;-42
2023/06/17 04:15:44;;;;;;;3.03;2.65;;;;;;;12.44;100.00;98311.59;15281590;19;20035;-43
2023/06/17 04:21:09;;;;;;;3.67;2.50;;;;;;;12.47;100.00;98316.66;15283475;19;20014;-47
2023/06/17 04:26:36;;;;;;;3.72;2.60;;;;;;;12.52;100.00;98310.72;15276629;19;20010;-45
2023/06/17 04:32:02;;;;;;;3.63;2.33;;;;;;;12.58;100.00;98316.25;15281071;19;20037;-50
2023/06/17 04:37:27;;;;;;;2.65;2.45;;;;;;;12.68;100.00;98312.47;15269587;19;20106;-42
2023/06/17 04:42:55;;;;;;;4.38;2.50;;;;;;;12.77;100.00;98324.91;15281120;19;20018;-45
2023/06/17 04:48:20;;;;;;;2.95;2.67;;;;;;;12.92;100.00;98328.56;15278658;19;20014;-47
2023/06/17 04:53:46;;;;;;;4.22;3.05;;;;;;;13.07;100.00;98339.44;15277892;19;20022;-46
2023/06/17 04:59:21;;;;;;;6.10;4.50;;;;;;;13.23;100.00;98337.66;15273245;19;20467;-44
2023/06/17 05:04:47;;;;;;;5.30;3.50;;;;;;;13.43;100.00;98342.59;15274567;19;20521;-48
2023/06/17 05:10:14;;;;;;;3.97;3.00;;;;;;;13.58;100.00;98326.41;15274652;19;20007;-44
2023/06/17 05:15:43;;;;;;;2.80;2.33;;;;;;;13.75;100.00;98321.69;15273246;19;20011;-51
2023/06/17 05:21:12;;;;;;;3.10;2.17;;;;;;;13.91;100.00;98309.84;15276188;19;20363;-48
2023/06/17 05:26:39;;;;;;;2.85;2.20;;;;;;;14.03;100.00;98300.22;15262733;19;20085;-51
2023/06/17 05:32:06;;;;;;;2.80;2.10;;;;;;;14.09;100.00;98283.22;15273171;19;20007;-48
2023/06/17 05:37:37;;;;;;;3.97;2.25;;;;;;;14.16;100.00;98276.03;15267311;19;20022;-44
2023/06/17 05:43:02;;;;;;;4.43;2.22;;;;;;;14.21;100.00;98280.03;15264345;19;20093;-49
2023/06/17 05:48:29;;;;;;;4.00;2.15;;;;;;;14.28;100.00;98286.41;15272290;19;20023;-47
2023/06/17 05:53:55;;;;;;;4.15;2.65;;;;;;;14.37;100.00;98285.25;15274377;19;20469;-42
2023/06/17 05:59:21;;;;;;;3.30;1.90;;;;;;;14.51;100.00;98280.00;15272485;19;20018;-45
2023/06/17 06:04:49;;;;;;;2.35;2.15;;;;;;;14.66;100.00;98272.66;15282101;19;20727;-43
2023/06/17 06:10:14;;;;;;;4.75;2.10;;;;;;;14.79;100.00;98267.41;15279446;19;20047;-42
2023/06/17 06:15:42;;;;;;;3.80;2.10;;;;;;;14.90;100.00;98267.94;15283089;19;20006;-49
2023/06/17 06:21:10;;;;;;;5.85;2.20;;;;;;;15.07;100.00;98255.81;15293718;19;20228;-45
2023/06/17 06:26:35;;;;;;;3.40;2.05;;;;;;;15.29;100.00;98250.34;15284869;19;20038;-45
2023/06/17 06:32:00;;;;;;;2.50;1.70;;;;;;;15.55;100.00;98249.72;15290084;19;20010;-48
2023/06/17 06:37:28;;;;;;;2.55;1.90;;;;;;;15.80;100.00;98251.16;15283133;19;20517;-43
2023/06/17 06:42:53;;;;;;;3.85;1.80;;;;;;;15.98;100.00;98251.50;15282430;19;20010;-46
2023/06/17 06:48:45;;;;;;;1.77;1.65;;;;;;;16.09;100.00;98244.66;15282014;19;20471;-47
2023/06/17 06:54:14;;;;;;;2.42;1.80;;;;;;;16.31;100.00;98274.44;15284763;19;20014;-44
2023/06/17 06:59:45;;;;;;;2.90;1.70;;;;;;;16.40;100.00;98261.53;15284555;19;20585;-47
2023/06/17 07:05:11;;;;;;;3.47;1.70;;;;;;;16.52;100.00;98259.91;15284669;19;20014;-46
2023/06/17 07:10:45;;;;;;;2.40;2.00;;;;;;;16.57;100.00;98265.56;15284824;19;20017;-46
2023/06/17 07:16:10;;;;;;;3.15;1.70;;;;;;;16.61;100.00;98253.22;15272750;19;20114;-47
2023/06/17 07:21:36;;;;;;;2.72;1.85;;;;;;;16.66;100.00;98255.34;15280591;19;20022;-48
2023/06/17 07:27:03;;;;;;;3.90;2.10;;;;;;;16.85;100.00;98258.28;15280893;19;20094;-46
2023/06/17 07:32:28;;;;;;;5.40;1.80;;;;;;;17.14;100.00;98267.19;15288580;19;20503;-46
2023/06/17 07:37:54;;;;;;;4.03;1.92;;;;;;;17.42;100.00;98269.72;15286498;19;20022;-43
2023/06/17 07:43:23;;;;;;;3.42;2.08;;;;;;;17.65;100.00;98258.38;15283898;19;20014;-43
2023/06/17 07:48:50;;;;;;;4.70;2.10;;;;;;;17.91;100.00;98256.66;15277275;19;20035;-45
2023/06/17 07:54:15;;;;;;;4.80;2.10;;;;;;;18.13;100.00;98260.00;15279221;19;20018;-50
2023/06/17 07:59:49;;;;;;;2.20;1.85;;;;;;;18.24;100.00;98244.84;15279007;19;20475;-44
2023/06/17 08:05:22;;;;;;;5.45;1.90;;;;;;;18.44;100.00;98241.22;15283707;19;20026;-46
2023/06/17 08:10:46;;;;;;;3.47;1.90;;;;;;;18.51;100.00;98230.28;15283331;19;20466;-49
2023/06/17 08:16:14;;;;;;;3.15;1.95;;;;;;;18.58;100.00;98228.34;15281583;19;20017;-43
2023/06/17 08:21:41;;;;;;;4.55;1.90;;;;;;;18.79;100.00;98233.47;15278361;19;20788;-47
2023/06/17 08:27:09;;;;;;;3.17;1.80;;;;;;;18.78;100.00;98231.78;15273374;19;20288;-44
2023/06/17 08:32:38;;;;;;;2.50;1.70;;;;;;;18.92;100.00;98228.97;15281667;19;20018;-46
2023/06/17 08:38:03;;;;;;;2.60;1.63;;;;;;;19.03;100.00;98224.75;15284509;19;20434;-44
2023/06/17 08:43:29;;;;;;;3.42;1.67;;;;;;;19.22;100.00;98228.38;15286148;19;20094;-48
2023/06/17 08:48:58;;;;;;;2.20;1.67;;;;;;;19.22;100.00;98221.00;15286121;19;20086;-44
2023/06/17 08:54:24;;;;;;;2.28;1.75;;;;;;;19.43;100.00;98212.66;15268247;19;20078;-49
2023/06/17 08:59:56;;;;;;;3.30;1.67;;;;;;;19.62;100.00;98211.63;15279483;19;20018;-44
2023/06/17 09:05:24;;;;;;;1.85;1.60;;;;;;;19.82;100.00;98205.09;14771311;19;10001030;-49
2023/06/17 09:10:56;;;;;;;1.98;1.30;;;;;;;19.93;100.00;98207.16;15277221;19;20612;-47
2023/06/17 09:16:27;;;;;;;6.65;1.58;;;;;;;20.31;100.00;98207.94;15277580;19;20018;-47
2023/06/17 09:21:56;;;;;;;2.13;1.45;;;;;;;20.32;100.00;98207.72;15279893;19;20022;-47
2023/06/17 09:27:25;;;;;;;3.80;1.35;;;;;;;20.30;100.00;98215.31;15266284;19;20464;-48
2023/06/17 09:32:52;;;;;;;1.27;1.17;;;;;;;20.42;100.00;98207.19;15279298;19;20373;-48
2023/06/17 09:38:21;;;;;;;3.67;1.60;;;;;;;20.32;100.00;98215.09;15285129;19;20240;-46
2023/06/17 09:43:47;;;;;;;1.85;1.27;;;;;;;20.30;100.00;98209.03;15291489;19;20027;-49
2023/06/17 09:49:16;;;;;;;2.63;1.30;;;;;;;20.09;100.00;98215.78;15292111;19;20087;-46
2023/06/17 09:54:44;;;;;;;1.73;1.40;;;;;;;20.22;100.00;98215.63;15286987;19;20054;-47
2023/06/17 10:00:14;;;;;;;1.60;1.40;;;;;;;20.22;100.00;98215.63;15280207;19;20078;-47
2023/06/17 10:05:38;;;;;;;5.10;1.48;;;;;;;20.21;100.00;98218.59;15286315;19;20096;-46
2023/06/17 10:11:06;;;;;;;2.50;1.42;;;;;;;20.17;100.00;98210.84;15285170;19;20019;-46
2023/06/17 10:16:34;;;;;;;4.28;1.60;;;;;;;20.24;100.00;98213.50;15285207;19;20035;-47
2023/06/17 10:22:05;;;;;;;4.35;1.40;;;;;;;20.45;100.00;98205.88;15293791;19;20010;-47
2023/06/17 10:27:32;;;;;;;3.00;1.20;;;;;;;20.63;100.00;98208.59;15286895;19;20017;-47
2023/06/17 10:32:59;;;;;;;2.33;1.20;;;;;;;20.61;100.00;98202.50;15289557;19;20021;-45
2023/06/17 10:38:30;;;;;;;1.60;1.20;;;;;;;20.58;100.00;98208.44;15292277;19;20010;-49
2023/06/17 10:43:57;;;;;;;4.20;1.40;;;;;;;20.42;100.00;98200.84;15290981;19;20373;-49
2023/06/17 10:49:23;;;;;;;2.28;1.52;;;;;;;20.25;100.00;98204.25;15282833;19;20025;-46
2023/06/17 10:54:53;;;;;;;1.98;1.48;;;;;;;20.29;100.00;98201.88;15286690;19;20011;-50
2023/06/17 11:00:30;;;;;;;1.58;1.15;;;;;;;20.28;100.00;98201.06;15276975;19;20022;-52
2023/06/17 11:05:55;;;;;;;3.35;1.10;;;;;;;20.45;96.24;98186.72;15279813;19;20403;-46
2023/06/17 11:11:21;;;;;;;2.00;1.30;;;;;;;20.63;98.99;98194.91;15282863;19;20234;-49
2023/06/17 11:16:49;;;;;;;1.55;1.20;;;;;;;20.72;79.15;98180.88;15286328;19;20467;-49
2023/06/17 11:22:14;;;;;;;2.90;1.30;;;;;;;21.09;73.79;98178.84;15290010;19;20081;-48
2023/06/17 11:27:40;;;;;;;2.13;1.38;;;;;;;21.36;73.76;98174.81;15288365;19;20035;-47
2023/06/17 11:33:08;;;;;;;1.85;1.30;;;;;;;21.64;82.24;98156.84;15281003;19;20862;-44
2023/06/17 11:38:34;;;;;;;2.97;1.38;;;;;;;21.88;77.35;98162.31;15284665;19;20074;-49
2023/06/17 11:43:59;;;;;;;3.45;1.10;;;;;;;21.95;89.98;98160.25;15288098;19;20827;-49
2023/06/17 11:49:30;;;;;;;1.92;1.17;;;;;;;22.21;59.60;98158.03;15284544;19;20054;-45
2023/06/17 11:54:55;;;;;;;3.38;1.23;;;;;;;22.43;65.80;98155.50;15284479;19;20038;-46
2023/06/17 12:00:22;;;;;;;2.00;1.10;;;;;;;22.47;61.42;98156.66;15280602;19;20490;-44
2023/06/17 12:05:49;;;;;;;1.85;1.20;;;;;;;22.57;61.78;98145.03;15276228;19;20481;-50
2023/06/17 12:11:27;;;;;;;2.20;1.23;;;;;;;22.65;62.50;98141.06;15278800;19;20014;-47
2023/06/17 12:16:51;;;;;;;3.30;1.30;;;;;;;22.91;70.15;98136.84;15281295;19;20577;-49
2023/06/17 12:22:19;;;;;;;2.78;1.55;;;;;;;22.97;66.86;98126.75;15276621;19;20033;-43
2023/06/17 12:27:43;;;;;;;1.48;1.10;;;;;;;23.22;70.89;98109.91;15278641;19;20018;-44
2023/06/17 12:33:08;;;;;;;2.00;1.40;;;;;;;23.48;63.16;98105.59;15279894;19;20085;-42
2023/06/17 12:38:37;;;;;;;1.30;1.08;;;;;;;23.82;58.68;98100.00;15275344;19;20010;-42
2023/06/17 12:44:02;;;;;;;3.78;1.30;;;;;;;23.94;54.84;98107.28;15276062;19;20010;-44
2023/06/17 12:49:27;;;;;;;6.13;1.20;;;;;;;23.92;54.06;98088.28;15283340;19;20011;-42
2023/06/17 12:55:04;;;;;;;1.42;1.00;;;;;;;24.20;53.40;98100.19;15280718;19;20387;-42
2023/06/17 13:00:28;;;;;;;1.10;1.00;;;;;;;24.30;54.43;98092.03;15284395;19;20358;-42
2023/06/17 13:05:53;;;;;;;3.20;1.00;;;;;;;24.53;54.36;98090.03;15277299;19;20018;-43
2023/06/17 13:11:20;;;;;;;2.92;1.15;;;;;;;24.64;50.91;98085.47;15273757;19;20081;-43
2023/06/17 13:16:46;;;;;;;1.30;1.00;;;;;;;24.73;50.58;98081.19;15277289;19;20022;-43
2023/06/17 13:22:12;;;;;;;2.25;1.05;;;;;;;25.12;54.34;98082.84;15281287;19;20070;-42
2023/06/17 13:27:40;;;;;;;1.05;1.00;;;;;;;25.30;50.39;98069.75;15281767;19;20025;-43
2023/06/17 13:33:06;;;;;;;1.63;1.00;;;;;;;25.60;51.95;98073.78;15279736;19;20433;-43
2023/06/17 13:38:31;;;;;;;2.70;1.10;;;;;;;25.45;48.31;98072.63;15281424;19;20010;-43
2023/06/17 13:43:58;;;;;;;2.00;1.00;;;;;;;25.46;51.62;98063.22;15270688;19;20658;-43
2023/06/17 13:49:23;;;;;;;1.63;1.23;;;;;;;25.10;50.85;98071.28;15272669;19;20041;-44
2023/06/17 13:54:49;;;;;;;1.55;1.00;;;;;;;24.74;54.29;98068.25;15270384;19;20023;-43
2023/06/17 14:00:18;;;;;;;3.38;1.00;;;;;;;25.13;51.43;98067.97;15276028;19;20014;-44
2023/06/17 14:05:43;;;;;;;1.52;1.10;;;;;;;25.29;51.68;98062.56;15272038;19;20029;-43
2023/06/17 14:11:08;;;;;;;2.88;1.20;;;;;;;25.41;50.52;98051.34;15272136;19;20467;-44
2023/06/17 14:16:35;;;;;;;1.67;1.20;;;;;;;25.15;53.82;98065.78;15274648;19;20011;-44
2023/06/17 14:22:05;;;;;;;1.45;1.10;;;;;;;24.85;52.81;98064.47;15278037;19;20032;-44
2023/06/17 14:27:43;;;;;;;1.43;1.20;;;;;;;24.81;52.03;98066.09;15298839;19;20022;-44
2023/06/17 14:33:12;;;;;;;1.42;1.05;;;;;;;24.58;54.37;98051.56;15293345;19;20554;-44
2023/06/17 14:38:36;;;;;;;1.80;1.00;;;;;;;25.00;55.58;98052.75;15297302;19;20010;-44
2023/06/17 14:44:01;;;;;;;1.42;1.17;;;;;;;25.51;51.32;98052.25;15290992;19;20017;-42
2023/06/17 14:49:29;;;;;;;1.70;1.10;;;;;;;25.97;52.22;98048.84;15289074;19;20486;-42
2023/06/17 14:54:54;;;;;;;1.70;1.00;;;;;;;26.39;51.30;98043.41;15289628;19;20386;-44
2023/06/17 15:00:19;;;;;;;1.63;1.05;;;;;;;26.57;52.20;98050.34;15296586;19;20018;-43
2023/06/17 15:05:47;;;;;;;2.10;1.02;;;;;;;26.54;47.39;98045.34;15288771;19;20462;-44
2023/06/17 15:11:14;;;;;;;2.05;0.90;;;;;;;26.85;50.54;98035.16;15289713;19;20066;-43
2023/06/17 15:16:39;;;;;;;1.67;0.98;;;;;;;25.84;50.27;98043.81;15293486;19;20466;-43
2023/06/17 15:22:14;;;;;;;1.38;1.10;;;;;;;25.71;50.72;98049.84;15280812;19;20018;-42
2023/06/17 15:27:46;;;;;;;2.33;1.00;;;;;;;25.59;50.58;98048.13;15288834;19;20031;-42
2023/06/17 15:33:11;;;;;;;1.35;1.15;;;;;;;25.33;51.66;98047.16;15285075;19;20041;-42
2023/06/17 15:38:39;;;;;;;1.77;1.10;;;;;;;25.63;51.86;98048.44;15286030;19;20025;-42
2023/06/17 15:44:04;;;;;;;2.28;1.00;;;;;;;25.86;53.39;98052.66;15285887;19;20015;-42
2023/06/17 15:49:28;;;;;;;1.70;1.08;;;;;;;26.03;54.21;98055.19;15281232;19;20014;-45
2023/06/17 15:55:00;;;;;;;2.45;1.00;;;;;;;25.21;51.13;98069.41;15276788;19;20022;-43
2023/06/17 16:00:26;;;;;;;2.97;1.15;;;;;;;25.01;53.97;98070.09;15284627;19;20391;-42
2023/06/17 16:05:50;;;;;;;1.45;1.10;;;;;;;24.89;53.89;98067.53;15280013;19;20406;-42
2023/06/17 16:11:18;;;;;;;4.50;1.42;;;;;;;24.91;56.26;98076.38;15281382;19;20015;-42
2023/06/17 16:16:43;;;;;;;1.75;1.10;;;;;;;24.61;54.06;98077.72;15282178;19;20022;-42
2023/06/17 16:22:09;;;;;;;2.72;1.13;;;;;;;24.16;55.67;98085.28;15270728;19;20037;-42
2023/06/17 16:27:37;;;;;;;1.80;1.10;;;;;;;24.23;56.29;98085.91;15276022;19;20037;-41
2023/06/17 16:33:01;;;;;;;2.22;1.00;;;;;;;24.18;58.79;98085.84;15275898;19;20030;-41
2023/06/17 16:38:26;;;;;;;1.50;1.10;;;;;;;23.88;56.42;98092.63;15280190;19;20488;-42
2023/06/17 16:43:53;;;;;;;2.42;0.90;;;;;;;23.89;55.86;98098.97;15271962;19;20015;-42
2023/06/17 16:49:18;;;;;;;1.45;1.00;;;;;;;23.93;56.04;98089.13;15276061;19;20029;-43
2023/06/17 16:54:45;;;;;;;1.13;0.90;;;;;;;23.84;55.69;98091.47;15271504;19;20024;-42
2023/06/17 17:00:16;;;;;;;2.05;1.00;;;;;;;23.74;57.50;98096.84;15271127;19;20604;-42
2023/06/17 17:05:41;;;;;;;0.88;0.88;;;;;;;23.49;58.16;98099.03;15274349;19;20014;-41
2023/06/17 17:11:06;;;;;;;1.77;0.90;;;;;;;23.37;58.59;98090.88;15278252;19;20121;-41
2023/06/17 17:16:34;;;;;;;1.48;0.90;;;;;;;23.28;59.50;98103.38;15273424;19;20028;-44
2023/06/17 17:21:59;;;;;;;1.15;1.00;;;;;;;23.19;60.04;98096.63;15277088;19;20022;-42
2023/06/17 17:27:24;;;;;;;2.13;1.10;;;;;;;23.11;62.89;98111.63;15271157;19;20026;-42
2023/06/17 17:32:54;;;;;;;1.63;1.10;;;;;;;23.24;63.98;98102.22;15264012;19;20021;-42
2023/06/17 17:38:19;;;;;;;3.50;1.20;;;;;;;23.09;68.58;98097.28;15277338;19;20082;-41
2023/06/17 17:43:43;;;;;;;1.60;1.05;;;;;;;22.68;63.79;98091.97;15273178;19;20098;-41
2023/06/17 17:49:11;;;;;;;0.93;0.93;;;;;;;22.16;61.15;98106.63;15272194;19;20018;-42
2023/06/17 17:54:36;;;;;;;1.02;1.00;;;;;;;21.74;60.70;98101.41;15271430;19;20085;-41
2023/06/17 18:00:21;;;;;;;3.17;1.10;;;;;;;21.85;65.01;98101.38;15276575;19;20018;-42
2023/06/17 18:05:49;;;;;;;1.17;0.82;;;;;;;21.72;63.85;98085.19;15283755;19;20360;-43
2023/06/17 18:11:14;;;;;;;0.90;0.88;;;;;;;21.69;61.70;98093.91;15290271;19;20022;-43
2023/06/17 18:16:38;;;;;;;1.08;1.00;;;;;;;21.73;66.32;98102.50;15289245;19;20022;-44
2023/06/17 18:22:06;;;;;;;1.02;0.90;;;;;;;21.80;71.01;98105.91;15283601;19;20356;-47
2023/06/17 18:27:30;;;;;;;4.45;0.90;;;;;;;21.84;66.15;98099.69;15281487;19;20019;-49
2023/06/17 18:32:55;;;;;;;1.90;0.90;;;;;;;21.85;68.12;98111.53;15280887;19;20041;-48
2023/06/17 18:38:23;;;;;;;0.88;0.82;;;;;;;21.84;70.84;98113.41;15288152;19;20033;-49
2023/06/17 18:43:48;;;;;;;1.15;0.90;;;;;;;21.72;74.76;98106.31;15286217;19;20031;-47
2023/06/17 18:49:22;;;;;;;1.15;0.82;;;;;;;21.58;71.75;98113.94;15289550;19;20027;-48
2023/06/17 18:54:50;;;;;;;1.77;1.10;;;;;;;21.50;75.49;98110.47;15280989;19;20022;-50
2023/06/17 19:00:15;;;;;;;1.48;1.00;;;;;;;21.39;72.16;98125.00;15287870;19;20020;-49
2023/06/17 19:05:41;;;;;;;0.93;0.93;;;;;;;21.29;73.83;98114.66;15276553;19;20384;-51
2023/06/17 19:11:12;;;;;;;0.90;0.90;;;;;;;21.08;68.49;98116.91;15282581;19;20466;-50
2023/06/17 19:16:45;;;;;;;1.27;0.90;;;;;;;20.92;69.97;98125.84;15283604;19;20014;-47
2023/06/17 19:22:17;;;;;;;1.00;0.90;;;;;;;20.68;71.08;98125.75;15286878;19;20937;-46
2023/06/17 19:27:44;;;;;;;1.38;0.90;;;;;;;20.54;70.76;98124.28;15285380;19;20049;-45
2023/06/17 19:33:09;;;;;;;1.80;1.00;;;;;;;20.46;73.05;98122.72;15283133;19;20017;-46
2023/06/17 19:38:33;;;;;;;0.98;0.90;;;;;;;20.35;71.81;98138.00;15279838;19;20029;-47
2023/06/17 19:44:01;;;;;;;1.02;0.95;;;;;;;20.27;75.20;98136.47;15279841;19;20017;-46
2023/06/17 19:49:26;;;;;;;1.38;1.00;;;;;;;20.21;78.73;98134.63;15284836;19;20893;-47
2023/06/17 19:54:51;;;;;;;1.50;1.10;;;;;;;20.11;84.96;98134.34;15277645;19;20016;-48
2023/06/17 20:00:19;;;;;;;1.27;1.08;;;;;;;19.98;90.05;98138.94;15273619;19;20019;-49
2023/06/17 20:05:44;;;;;;;1.02;1.00;;;;;;;19.88;93.86;98132.31;15246755;19;20017;-47
2023/06/17 20:11:09;;;;;;;1.33;1.23;;;;;;;19.73;98.21;98140.88;15271135;19;20022;-47
2023/06/17 20:16:37;;;;;;;2.88;1.10;;;;;;;19.57;100.00;98134.97;15274469;19;20018;-46
2023/06/17 20:22:01;;;;;;;1.08;1.00;;;;;;;19.42;100.00;98139.97;15281544;19;20024;-48
2023/06/17 20:27:26;;;;;;;1.25;1.00;;;;;;;19.31;100.00;98139.66;15282101;19;20014;-46
2023/06/17 20:32:53;;;;;;;1.40;1.20;;;;;;;19.20;100.00;98143.09;15285037;19;20090;-49
2023/06/17 20:38:18;;;;;;;0.85;0.85;;;;;;;19.07;100.00;98147.63;15282235;19;20021;-51
2023/06/17 20:43:42;;;;;;;1.48;1.17;;;;;;;18.92;100.00;98136.16;15273146;19;20018;-51
2023/06/17 20:49:10;;;;;;;2.50;1.13;;;;;;;18.76;100.00;98145.75;15275996;19;20026;-50
2023/06/17 20:54:34;;;;;;;1.45;1.23;;;;;;;18.64;100.00;98134.69;15277851;19;20014;-49
2023/06/17 20:59:59;;;;;;;1.35;1.10;;;;;;;18.57;100.00;98142.09;15281473;19;20018;-51
2023/06/17 21:05:26;;;;;;;3.20;1.40;;;;;;;18.41;100.00;98148.91;15277498;19;20737;-46
2023/06/17 21:10:52;;;;;;;2.75;1.20;;;;;;;18.25;100.00;98145.63;15281548;19;20011;-45
2023/06/17 21:16:16;;;;;;;2.10;1.52;;;;;;;18.06;100.00;98152.84;15267879;19;20034;-46
2023/06/17 21:21:44;;;;;;;1.40;1.30;;;;;;;17.90;100.00;98162.31;15279866;19;20490;-51
2023/06/17 21:27:16;;;;;;;1.50;1.40;;;;;;;17.75;100.00;98159.88;15274165;19;20363;-51
2023/06/17 21:32:41;;;;;;;1.67;1.50;;;;;;;17.63;100.00;98156.13;15280873;19;20021;-48
2023/06/17 21:38:09;;;;;;;1.83;1.52;;;;;;;17.50;100.00;98166.00;15294131;19;20014;-49
2023/06/17 21:43:34;;;;;;;1.52;1.42;;;;;;;17.40;100.00;98173.75;15292919;19;20018;-48
2023/06/17 21:48:59;;;;;;;1.60;1.50;;;;;;;17.15;100.00;98177.13;15292262;19;20078;-48
2023/06/17 21:54:26;;;;;;;1.40;1.30;;;;;;;17.11;100.00;98181.31;15285640;19;20028;-50
2023/06/17 21:59:52;;;;;;;1.50;1.40;;;;;;;17.05;100.00;98195.78;15292994;19;20053;-49
2023/06/17 22:05:22;;;;;;;2.25;1.60;;;;;;;16.90;100.00;98185.06;15289888;19;20031;-43
2023/06/17 22:10:50;;;;;;;1.92;1.40;;;;;;;16.73;100.00;98181.91;15292038;19;20042;-49
2023/06/17 22:16:15;;;;;;;1.60;1.50;;;;;;;16.68;100.00;98176.25;15279712;19;20037;-44
2023/06/17 22:21:40;;;;;;;1.75;1.50;;;;;;;16.61;100.00;98185.25;15293131;19;20017;-46
2023/06/17 22:27:19;;;;;;;1.60;1.50;;;;;;;16.58;100.00;98185.66;15283095;19;20014;-45
2023/06/17 22:32:44;;;;;;;1.60;1.50;;;;;;;16.46;100.00;98193.53;15287326;19;20395;-47
2023/06/17 22:38:09;;;;;;;1.95;1.50;;;;;;;16.29;100.00;98178.66;15287549;19;20358;-46
2023/06/17 22:43:36;;;;;;;1.75;1.55;;;;;;;16.17;100.00;98179.25;15284083;19;20018;-44
2023/06/17 22:49:01;;;;;;;2.08;1.50;;;;;;;16.11;100.00;98176.50;15283512;19;20013;-45
2023/06/17 22:54:25;;;;;;;1.88;1.60;;;;;;;16.09;100.00;98173.16;15282905;19;20575;-46
2023/06/17 22:59:53;;;;;;;1.42;1.33;;;;;;;16.01;100.00;98180.44;15288880;19;20027;-46
2023/06/17 23:05:18;;;;;;;1.60;1.50;;;;;;;15.93;100.00;98177.06;15286488;19;20018;-49
2023/06/17 23:10:43;;;;;;;2.55;1.70;;;;;;;15.84;100.00;98176.34;15282631;19;20018;-49
2023/06/17 23:16:11;;;;;;;1.83;1.70;;;;;;;15.74;100.00;98174.03;15282012;19;20344;-47
2023/06/17 23:21:36;;;;;;;1.67;1.58;;;;;;;15.67;100.00;98170.41;15282803;19;20369;-45
2023/06/17 23:27:08;;;;;;;1.73;1.60;;;;;;;15.59;100.00;98173.31;15275065;19;20054;-48
2023/06/17 23:32:35;;;;;;;1.70;1.60;;;;;;;15.48;100.00;98178.25;15283944;19;20013;-47
2023/06/17 23:38:02;;;;;;;1.60;1.50;;;;;;;15.35;100.00;98178.97;15286817;19;20014;-51
2023/06/17 23:43:28;;;;;;;2.00;1.80;;;;;;;15.24;100.00;98177.66;15286891;19;20014;-49
2023/06/17 23:48:56;;;;;;;1.83;1.70;;;;;;;15.14;100.00;98177.19;15286054;19;20038;-48
2023/06/17 23:54:20;;;;;;;2.38;1.73;;;;;;;15.05;100.00;98173.75;15275774;19;20033;-46
2023/06/17 23:59:45;;;;;;;1.77;1.67;;;;;;;15.00;100.00;98176.22;15280386;19;20074;-46
